createdAt,value
2017-12-24T00:00:07.909Z,95.00
2017-12-24T00:02:36.047Z,95.40
2017-12-24T00:05:05.186Z,95.10
2017-12-24T00:07:33.325Z,95.00
2017-12-24T00:10:02.058Z,95.10
2017-12-24T00:12:30.249Z,94.90
2017-12-24T00:14:59.313Z,95.00
2017-12-24T00:17:27.476Z,95.00
2017-12-24T00:19:55.638Z,95.10
2017-12-24T00:22:23.785Z,95.20
2017-12-24T00:24:51.928Z,95.20
2017-12-24T00:27:20.065Z,95.30
2017-12-24T00:29:48.228Z,95.40
2017-12-24T00:32:16.552Z,95.40
2017-12-24T00:34:46.359Z,95.20
2017-12-24T00:37:15.272Z,95.30
2017-12-24T00:39:44.201Z,95.60
2017-12-24T00:42:12.355Z,95.60
2017-12-24T00:44:41.277Z,95.50
2017-12-24T00:47:09.403Z,95.40
2017-12-24T00:49:37.553Z,95.70
2017-12-24T00:52:05.683Z,95.60
2017-12-24T00:54:33.825Z,95.70
2017-12-24T00:57:02.019Z,95.70
2017-12-24T00:59:30.126Z,95.60
2017-12-24T01:01:58.267Z,95.70
2017-12-24T01:04:26.404Z,95.40
2017-12-24T01:06:54.550Z,95.60
2017-12-24T01:09:22.693Z,95.60
2017-12-24T01:11:50.871Z,95.50
2017-12-24T01:14:19.013Z,95.60
2017-12-24T01:16:47.173Z,95.70
2017-12-24T01:19:16.065Z,95.80
2017-12-24T01:21:44.994Z,95.50
2017-12-24T01:24:13.125Z,95.50
2017-12-24T01:26:41.264Z,95.60
2017-12-24T01:29:10.946Z,95.60
2017-12-24T01:31:39.056Z,95.60
2017-12-24T01:34:07.969Z,95.60
2017-12-24T01:36:36.872Z,95.70
2017-12-24T01:39:05.225Z,95.60
2017-12-24T01:41:33.356Z,96.10
2017-12-24T01:44:02.256Z,95.90
2017-12-24T01:46:30.388Z,95.90
2017-12-24T01:48:58.533Z,95.60
2017-12-24T01:51:28.251Z,95.40
2017-12-24T01:53:56.388Z,95.40
2017-12-24T01:56:25.297Z,95.70
2017-12-24T01:58:53.788Z,95.60
2017-12-24T02:01:21.905Z,95.70
2017-12-24T02:03:50.834Z,95.60
2017-12-24T02:06:18.973Z,95.60
2017-12-24T02:08:47.117Z,95.30
2017-12-24T02:11:15.248Z,95.50
2017-12-24T02:13:45.211Z,95.30
2017-12-24T02:16:13.354Z,95.20
2017-12-24T02:18:41.493Z,95.70
2017-12-24T02:21:09.648Z,95.50
2017-12-24T02:23:37.796Z,95.60
2017-12-24T02:26:05.932Z,95.40
2017-12-24T02:28:34.808Z,95.20
2017-12-24T02:31:02.955Z,95.20
2017-12-24T02:33:31.084Z,95.00
2017-12-24T02:35:59.226Z,95.00
2017-12-24T02:38:27.366Z,95.20
2017-12-24T02:40:55.520Z,95.00
2017-12-24T02:43:23.645Z,94.70
2017-12-24T02:45:51.792Z,94.50
2017-12-24T02:48:19.969Z,94.70
2017-12-24T02:50:49.110Z,94.90
2017-12-24T02:53:17.222Z,95.00
2017-12-24T02:55:46.186Z,94.40
2017-12-24T02:58:14.314Z,94.40
2017-12-24T03:00:42.455Z,94.20
2017-12-24T03:03:10.590Z,94.50
2017-12-24T03:05:38.704Z,94.30
2017-12-24T03:08:06.853Z,94.30
2017-12-24T03:10:35.736Z,94.30
2017-12-24T03:13:04.644Z,94.20
2017-12-24T03:15:33.532Z,94.40
2017-12-24T03:18:01.697Z,94.40
2017-12-24T03:20:29.849Z,94.40
2017-12-24T03:22:58.759Z,94.50
2017-12-24T03:25:26.888Z,94.50
2017-12-24T03:27:55.016Z,94.80
2017-12-24T03:30:23.165Z,94.70
2017-12-24T03:32:51.301Z,94.80
2017-12-24T03:35:19.417Z,94.70
2017-12-24T03:37:48.425Z,94.70
2017-12-24T03:40:17.321Z,94.40
2017-12-24T03:42:46.317Z,94.50
2017-12-24T03:45:14.433Z,94.40
2017-12-24T03:47:42.582Z,94.90
2017-12-24T03:50:11.693Z,94.70
2017-12-24T03:52:39.832Z,94.90
2017-12-24T03:55:08.720Z,94.90
2017-12-24T03:57:36.838Z,94.90
2017-12-24T04:00:04.980Z,94.90
2017-12-24T04:02:34.534Z,94.80
2017-12-24T04:05:03.444Z,94.90
2017-12-24T04:07:32.346Z,94.80
2017-12-24T04:10:00.462Z,94.80
2017-12-24T04:12:28.574Z,94.80
2017-12-24T04:14:56.741Z,95.00
2017-12-24T04:17:24.852Z,95.00
2017-12-24T04:19:52.990Z,95.00
2017-12-24T04:22:21.869Z,95.40
2017-12-24T04:24:50.781Z,95.30
2017-12-24T04:27:19.669Z,95.30
2017-12-24T04:29:50.090Z,95.50
2017-12-24T04:32:18.245Z,95.50
2017-12-24T04:34:46.376Z,95.50
2017-12-24T04:37:14.505Z,95.40
2017-12-24T04:39:42.631Z,95.50
2017-12-24T04:42:10.761Z,95.80
2017-12-24T04:44:38.899Z,95.90
2017-12-24T04:47:07.020Z,96.00
2017-12-24T04:49:35.928Z,96.20
2017-12-24T04:52:04.802Z,96.40
2017-12-24T04:54:32.931Z,96.40
2017-12-24T04:57:01.054Z,96.90
2017-12-24T04:59:30.093Z,96.90
2017-12-24T05:01:59.022Z,96.90
2017-12-24T05:04:27.886Z,96.90
2017-12-24T05:06:56.039Z,96.80
2017-12-24T05:09:24.178Z,96.90
2017-12-24T05:11:54.241Z,96.50
2017-12-24T05:14:22.365Z,96.50
2017-12-24T05:16:50.518Z,96.80
2017-12-24T05:19:18.632Z,96.90
2017-12-24T05:21:46.777Z,96.60
2017-12-24T05:24:14.977Z,96.70
2017-12-24T05:26:43.145Z,96.60
2017-12-24T05:29:12.172Z,96.80
2017-12-24T05:31:41.117Z,96.60
2017-12-24T05:34:09.243Z,96.70
2017-12-24T05:36:37.365Z,96.50
2017-12-24T05:39:05.479Z,96.60
2017-12-24T05:41:34.396Z,97.00
2017-12-24T05:44:03.298Z,96.90
2017-12-24T05:46:32.180Z,96.80
2017-12-24T05:49:01.096Z,96.80
2017-12-24T05:51:29.216Z,96.40
2017-12-24T05:53:57.360Z,96.50
2017-12-24T05:56:25.478Z,96.40
2017-12-24T05:58:53.620Z,96.30
2017-12-24T06:01:21.744Z,96.20
2017-12-24T06:03:50.644Z,96.30
2017-12-24T06:06:18.761Z,96.30
2017-12-24T06:08:46.884Z,96.70
2017-12-24T06:11:15.024Z,96.40
2017-12-24T06:13:43.157Z,96.40
2017-12-24T06:16:11.300Z,96.30
2017-12-24T06:18:40.356Z,96.00
2017-12-24T06:21:08.524Z,96.00
2017-12-24T06:23:36.647Z,95.90
2017-12-24T06:26:05.570Z,96.10
2017-12-24T06:28:34.643Z,96.10
2017-12-24T06:31:02.784Z,96.00
2017-12-24T06:33:31.833Z,96.10
2017-12-24T06:35:59.973Z,96.10
2017-12-24T06:38:28.109Z,96.30
2017-12-24T06:40:56.246Z,95.60
2017-12-24T06:43:24.383Z,95.70
2017-12-24T06:45:52.539Z,95.50
2017-12-24T06:48:20.673Z,95.30
2017-12-24T06:50:48.796Z,95.30
2017-12-24T06:53:16.949Z,95.40
2017-12-24T06:55:45.744Z,95.40
2017-12-24T06:58:15.233Z,95.40
2017-12-24T07:00:43.358Z,95.40
2017-12-24T07:03:11.501Z,95.40
2017-12-24T07:05:39.639Z,95.60
2017-12-24T07:08:07.774Z,95.50
2017-12-24T07:10:35.899Z,95.50
2017-12-24T07:13:05.377Z,95.30
2017-12-24T07:15:33.616Z,95.10
2017-12-24T07:18:01.737Z,94.70
2017-12-24T07:20:29.878Z,95.00
2017-12-24T07:22:58.010Z,95.10
2017-12-24T07:25:26.159Z,94.80
2017-12-24T07:27:54.276Z,94.60
2017-12-24T07:30:22.422Z,94.60
2017-12-24T07:32:50.545Z,94.50
2017-12-24T07:35:18.688Z,94.70
2017-12-24T07:37:46.862Z,94.90
2017-12-24T07:40:15.768Z,94.70
2017-12-24T07:42:44.673Z,94.80
2017-12-24T07:45:13.585Z,95.00
2017-12-24T07:47:41.746Z,95.00
2017-12-24T07:50:10.739Z,94.50
2017-12-24T07:52:39.757Z,94.50
2017-12-24T07:55:07.881Z,94.10
2017-12-24T07:57:37.699Z,94.30
2017-12-24T08:00:06.593Z,94.10
2017-12-24T08:02:35.639Z,94.10
2017-12-24T08:05:03.772Z,94.10
2017-12-24T08:07:32.648Z,93.90
2017-12-24T08:10:00.804Z,93.90
2017-12-24T08:12:28.931Z,93.60
2017-12-24T08:14:57.069Z,93.60
2017-12-24T08:17:25.206Z,93.50
2017-12-24T08:19:54.137Z,93.70
2017-12-24T08:22:22.278Z,93.60
2017-12-24T08:24:50.413Z,93.60
2017-12-24T08:27:18.554Z,93.30
2017-12-24T08:29:46.679Z,93.10
2017-12-24T08:32:15.233Z,93.00
2017-12-24T08:34:43.338Z,92.90
2017-12-24T08:37:12.237Z,92.90
2017-12-24T08:39:41.240Z,92.80
2017-12-24T08:42:09.358Z,92.60
2017-12-24T08:44:38.396Z,92.60
2017-12-24T08:47:06.521Z,92.20
2017-12-24T08:49:35.417Z,92.70
2017-12-24T08:52:04.369Z,92.70
2017-12-24T08:54:32.504Z,92.70
2017-12-24T08:57:00.681Z,92.80
2017-12-24T08:59:28.832Z,92.80
2017-12-24T09:01:56.946Z,93.00
2017-12-24T09:04:26.017Z,93.10
2017-12-24T09:06:54.910Z,92.70
2017-12-24T09:09:23.051Z,92.60
2017-12-24T09:11:51.408Z,92.70
2017-12-24T09:14:20.317Z,92.60
2017-12-24T09:16:48.452Z,92.60
2017-12-24T09:19:17.556Z,92.60
2017-12-24T09:21:46.076Z,92.30
2017-12-24T09:24:14.195Z,92.50
2017-12-24T09:26:42.341Z,92.40
2017-12-24T09:29:10.465Z,92.40
2017-12-24T09:31:38.616Z,92.40
2017-12-24T09:34:06.757Z,92.30
2017-12-24T09:36:34.902Z,92.10
2017-12-24T09:39:04.546Z,92.00
2017-12-24T09:41:32.705Z,91.90
2017-12-24T09:44:01.502Z,91.60
2017-12-24T09:46:30.384Z,91.50
2017-12-24T09:48:58.556Z,91.50
2017-12-24T09:51:26.698Z,91.40
2017-12-24T09:53:54.862Z,91.30
2017-12-24T09:56:23.762Z,91.30
2017-12-24T09:58:51.918Z,91.30
2017-12-24T10:01:21.689Z,91.50
2017-12-24T10:03:50.625Z,91.70
2017-12-24T10:06:18.761Z,91.60
2017-12-24T10:08:46.991Z,91.20
2017-12-24T10:11:15.111Z,90.90
2017-12-24T10:13:43.268Z,90.80
2017-12-24T10:16:11.394Z,90.70
2017-12-24T10:18:39.550Z,90.80
2017-12-24T10:21:07.663Z,90.50
2017-12-24T10:23:37.000Z,90.40
2017-12-24T10:26:05.923Z,90.40
2017-12-24T10:28:34.080Z,90.30
2017-12-24T10:31:02.207Z,90.30
2017-12-24T10:33:30.355Z,90.00
2017-12-24T10:35:58.514Z,89.90
2017-12-24T10:38:27.433Z,91.00
2017-12-24T10:40:55.529Z,90.60
2017-12-24T10:43:24.614Z,90.00
2017-12-24T10:45:53.510Z,90.50
2017-12-24T10:48:21.637Z,90.30
2017-12-24T10:50:50.570Z,90.40
2017-12-24T10:53:18.728Z,90.40
2017-12-24T10:55:48.470Z,90.00
2017-12-24T10:58:18.656Z,89.90
2017-12-24T11:00:46.799Z,90.10
2017-12-24T11:03:14.946Z,90.00
2017-12-24T11:05:43.074Z,89.70
2017-12-24T11:08:11.210Z,90.10
2017-12-24T11:10:39.336Z,90.00
2017-12-24T11:13:07.492Z,90.50
2017-12-24T11:15:35.624Z,90.50
2017-12-24T11:18:04.541Z,90.90
2017-12-24T11:20:32.697Z,90.90
2017-12-24T11:23:00.869Z,90.80
2017-12-24T11:25:29.759Z,90.70
2017-12-24T11:27:59.005Z,90.40
2017-12-24T11:30:27.212Z,90.40
2017-12-24T11:32:56.148Z,90.20
2017-12-24T11:35:24.264Z,90.20
2017-12-24T11:37:53.194Z,90.30
2017-12-24T11:40:21.312Z,90.30
2017-12-24T11:42:49.472Z,90.00
2017-12-24T11:45:17.616Z,89.80
2017-12-24T11:47:45.841Z,89.30
2017-12-24T11:50:13.940Z,88.70
2017-12-24T11:52:42.077Z,88.80
2017-12-24T11:55:10.970Z,88.40
2017-12-24T11:57:39.869Z,88.60
2017-12-24T12:00:08.785Z,88.70
2017-12-24T12:02:37.700Z,88.80
2017-12-24T12:05:06.608Z,88.90
2017-12-24T12:07:34.748Z,88.80
2017-12-24T12:10:03.515Z,87.90
2017-12-24T12:12:31.702Z,88.00
2017-12-24T12:15:00.716Z,88.90
2017-12-24T12:17:28.850Z,88.60
2017-12-24T12:19:57.075Z,87.50
2017-12-24T12:22:25.957Z,87.40
2017-12-24T12:24:54.089Z,87.60
2017-12-24T12:27:22.268Z,88.50
2017-12-24T12:29:50.377Z,88.60
2017-12-24T12:32:19.490Z,89.40
2017-12-24T12:34:48.498Z,88.20
2017-12-24T12:37:16.670Z,87.80
2017-12-24T12:39:44.799Z,88.00
2017-12-24T12:42:13.719Z,87.60
2017-12-24T12:44:41.878Z,87.60
2017-12-24T12:47:10.019Z,87.90
2017-12-24T12:49:38.163Z,88.20
2017-12-24T12:52:07.050Z,88.10
2017-12-24T12:54:35.974Z,89.20
2017-12-24T12:57:04.092Z,88.90
2017-12-24T12:59:32.258Z,88.20
2017-12-24T13:02:00.401Z,88.20
2017-12-24T13:04:30.059Z,88.40
2017-12-24T13:06:58.225Z,88.30
2017-12-24T13:09:26.339Z,88.50
2017-12-24T13:11:54.498Z,88.20
2017-12-24T13:14:23.414Z,89.00
2017-12-24T13:16:52.325Z,89.60
2017-12-24T13:19:20.465Z,90.00
2017-12-24T13:21:48.633Z,89.90
2017-12-24T13:24:16.750Z,90.00
2017-12-24T13:26:44.955Z,90.00
2017-12-24T13:29:13.878Z,90.40
2017-12-24T13:31:42.031Z,90.30
2017-12-24T13:34:10.159Z,90.70
2017-12-24T13:36:38.349Z,90.50
2017-12-24T13:39:06.500Z,90.10
2017-12-24T13:41:38.489Z,90.10
2017-12-24T13:44:08.557Z,90.00
2017-12-24T13:46:36.771Z,90.00
2017-12-24T13:49:04.947Z,90.00
2017-12-24T13:51:33.581Z,89.70
2017-12-24T13:54:02.506Z,90.20
2017-12-24T13:56:30.649Z,90.10
2017-12-24T13:58:58.813Z,89.80
2017-12-24T14:01:26.935Z,90.00
2017-12-24T14:03:55.082Z,89.40
2017-12-24T14:06:23.199Z,89.70
2017-12-24T14:08:51.344Z,90.00
2017-12-24T14:11:19.482Z,90.40
2017-12-24T14:13:47.639Z,90.50
2017-12-24T14:16:15.768Z,90.50
2017-12-24T14:18:43.890Z,91.00
2017-12-24T14:21:12.042Z,91.00
2017-12-24T14:23:40.177Z,91.10
2017-12-24T14:26:08.335Z,91.00
2017-12-24T14:28:36.465Z,91.30
2017-12-24T14:31:04.598Z,90.90
2017-12-24T14:33:32.737Z,91.10
2017-12-24T14:36:00.894Z,90.90
2017-12-24T14:38:29.014Z,91.20
2017-12-24T14:40:58.009Z,91.00
2017-12-24T14:43:26.199Z,90.90
2017-12-24T14:45:54.812Z,90.80
2017-12-24T14:48:23.700Z,91.10
2017-12-24T14:50:51.841Z,91.10
2017-12-24T14:53:19.968Z,90.60
2017-12-24T14:55:48.111Z,90.70
2017-12-24T14:58:16.264Z,91.10
2017-12-24T15:00:45.231Z,91.00
2017-12-24T15:03:13.345Z,90.90
2017-12-24T15:05:42.237Z,91.00
2017-12-24T15:08:10.393Z,91.00
2017-12-24T15:10:38.551Z,91.00
2017-12-24T15:13:06.709Z,91.10
2017-12-24T15:15:35.593Z,90.90
2017-12-24T15:18:05.237Z,90.80
2017-12-24T15:20:34.145Z,90.70
2017-12-24T15:23:03.042Z,90.60
2017-12-24T15:25:32.677Z,90.50
2017-12-24T15:28:01.691Z,90.50
2017-12-24T15:30:29.851Z,90.50
2017-12-24T15:32:58.605Z,90.50
2017-12-24T15:35:26.754Z,90.20
2017-12-24T15:37:55.659Z,90.20
2017-12-24T15:40:24.550Z,90.30
2017-12-24T15:42:53.458Z,90.30
2017-12-24T15:45:22.376Z,90.30
2017-12-24T15:47:51.286Z,90.30
2017-12-24T15:50:19.439Z,90.30
2017-12-24T15:52:48.378Z,90.00
2017-12-24T15:55:16.514Z,90.00
2017-12-24T15:57:44.649Z,89.70
2017-12-24T16:00:12.811Z,89.50
2017-12-24T16:02:40.952Z,90.00
2017-12-24T16:05:09.091Z,89.70
2017-12-24T16:07:38.057Z,89.60
2017-12-24T16:10:06.195Z,89.50
2017-12-24T16:12:34.319Z,89.80
2017-12-24T16:15:05.566Z,90.00
2017-12-24T16:17:33.712Z,90.00
2017-12-24T16:20:02.627Z,90.10
2017-12-24T16:22:31.549Z,90.00
2017-12-24T16:24:59.673Z,90.00
2017-12-24T16:27:27.833Z,90.00
2017-12-24T16:29:55.948Z,90.20
2017-12-24T16:32:24.994Z,90.10
2017-12-24T16:34:53.132Z,90.20
2017-12-24T16:37:22.062Z,90.30
2017-12-24T16:39:50.987Z,90.20
2017-12-24T16:42:20.381Z,90.20
2017-12-24T16:44:48.513Z,90.50
2017-12-24T16:47:16.650Z,90.70
2017-12-24T16:49:46.388Z,90.30
2017-12-24T16:52:15.381Z,90.50
2017-12-24T16:54:44.315Z,90.50
2017-12-24T16:57:12.491Z,90.50
2017-12-24T16:59:42.485Z,90.40
2017-12-24T17:02:10.635Z,90.50
2017-12-24T17:04:38.757Z,90.70
2017-12-24T17:07:06.901Z,90.70
2017-12-24T17:09:35.045Z,90.80
2017-12-24T17:12:03.187Z,91.00
2017-12-24T17:14:31.320Z,91.20
2017-12-24T17:17:00.225Z,90.90
2017-12-24T17:19:29.153Z,90.90
2017-12-24T17:21:58.067Z,91.10
2017-12-24T17:24:26.213Z,91.10
2017-12-24T17:26:54.358Z,91.20
2017-12-24T17:29:22.495Z,91.20
2017-12-24T17:31:51.425Z,91.00
2017-12-24T17:34:19.555Z,91.00
2017-12-24T17:36:47.681Z,90.80
2017-12-24T17:39:16.627Z,90.70
2017-12-24T17:41:44.787Z,90.80
2017-12-24T17:44:12.918Z,90.80
2017-12-24T17:46:41.145Z,90.80
2017-12-24T17:49:09.289Z,90.80
2017-12-24T17:51:37.412Z,90.80
2017-12-24T17:54:05.569Z,90.80
2017-12-24T17:56:33.708Z,90.70
2017-12-24T17:59:01.925Z,90.70
2017-12-24T18:01:30.033Z,90.70
2017-12-24T18:03:58.148Z,90.70
2017-12-24T18:06:26.286Z,90.90
2017-12-24T18:08:54.425Z,90.70
2017-12-24T18:11:23.324Z,90.80
2017-12-24T18:13:52.233Z,90.80
2017-12-24T18:16:20.408Z,90.70
2017-12-24T18:18:49.311Z,90.80
2017-12-24T18:21:18.055Z,90.80
2017-12-24T18:23:46.179Z,90.70
2017-12-24T18:26:14.325Z,91.10
2017-12-24T18:28:42.453Z,90.70
2017-12-24T18:31:11.352Z,90.50
2017-12-24T18:33:39.489Z,90.50
2017-12-24T18:36:07.638Z,90.60
2017-12-24T18:38:36.520Z,90.60
2017-12-24T18:41:04.676Z,90.60
2017-12-24T18:43:33.759Z,90.80
2017-12-24T18:46:01.909Z,90.50
2017-12-24T18:48:30.797Z,90.50
2017-12-24T18:50:58.931Z,90.40
2017-12-24T18:53:27.075Z,90.50
2017-12-24T18:55:55.990Z,90.30
2017-12-24T18:58:24.101Z,90.20
2017-12-24T19:00:52.353Z,90.50
2017-12-24T19:03:21.616Z,90.30
2017-12-24T19:05:49.757Z,90.30
2017-12-24T19:08:18.664Z,90.40
2017-12-24T19:10:47.587Z,90.30
2017-12-24T19:13:17.308Z,90.30
2017-12-24T19:15:45.433Z,90.30
2017-12-24T19:18:13.602Z,90.40
2017-12-24T19:20:41.729Z,90.20
2017-12-24T19:23:09.840Z,90.00
2017-12-24T19:25:38.945Z,90.10
2017-12-24T19:28:07.049Z,90.10
2017-12-24T19:30:35.889Z,90.30
2017-12-24T19:33:04.045Z,90.40
2017-12-24T19:35:32.453Z,90.20
2017-12-24T19:38:00.596Z,90.20
2017-12-24T19:40:29.512Z,90.40
2017-12-24T19:42:57.628Z,90.40
2017-12-24T19:45:27.909Z,90.40
2017-12-24T19:47:56.050Z,90.40
2017-12-24T19:50:24.188Z,90.40
2017-12-24T19:52:53.121Z,90.00
2017-12-24T19:55:21.253Z,90.00
2017-12-24T19:57:49.378Z,90.30
2017-12-24T20:00:18.426Z,90.20
2017-12-24T20:02:46.539Z,90.30
2017-12-24T20:05:14.687Z,90.10
2017-12-24T20:07:42.814Z,90.20
2017-12-24T20:10:10.968Z,90.40
2017-12-24T20:12:39.096Z,90.40
2017-12-24T20:15:08.013Z,90.30
2017-12-24T20:17:36.904Z,90.20
2017-12-24T20:20:05.818Z,90.00
2017-12-24T20:22:35.253Z,90.50
2017-12-24T20:25:03.399Z,90.40
2017-12-24T20:27:32.481Z,90.40
2017-12-24T20:30:01.334Z,90.10
2017-12-24T20:32:32.208Z,90.60
2017-12-24T20:35:00.340Z,90.60
2017-12-24T20:37:28.482Z,90.70
2017-12-24T20:39:56.612Z,90.20
2017-12-24T20:42:25.738Z,90.10
2017-12-24T20:44:54.674Z,90.30
2017-12-24T20:47:22.793Z,90.20
2017-12-24T20:49:51.289Z,90.30
2017-12-24T20:52:19.401Z,90.50
2017-12-24T20:54:48.323Z,89.90
2017-12-24T20:57:17.250Z,89.70
2017-12-24T20:59:45.361Z,89.70
2017-12-24T21:02:13.528Z,90.00
2017-12-24T21:04:42.422Z,90.00
2017-12-24T21:07:10.555Z,90.00
2017-12-24T21:09:39.445Z,89.90
2017-12-24T21:12:08.342Z,90.00
2017-12-24T21:14:36.501Z,90.00
2017-12-24T21:17:05.557Z,89.60
2017-12-24T21:19:33.691Z,89.30
2017-12-24T21:22:01.826Z,89.40
2017-12-24T21:24:29.971Z,89.70
2017-12-24T21:26:58.862Z,90.00
2017-12-24T21:29:27.035Z,90.00
2017-12-24T21:31:55.920Z,89.50
2017-12-24T21:34:24.066Z,89.50
2017-12-24T21:36:52.982Z,89.60
2017-12-24T21:39:21.741Z,89.50
2017-12-24T21:41:50.638Z,89.10
2017-12-24T21:44:19.540Z,89.50
2017-12-24T21:46:51.311Z,88.80
2017-12-24T21:49:20.205Z,89.20
2017-12-24T21:51:48.350Z,89.20
2017-12-24T21:54:16.512Z,89.60
2017-12-24T21:56:44.658Z,89.50
2017-12-24T21:59:12.779Z,89.80
2017-12-24T22:01:40.932Z,89.30
2017-12-24T22:04:09.817Z,89.70
2017-12-24T22:06:37.938Z,89.70
2017-12-24T22:09:06.844Z,89.20
2017-12-24T22:11:34.983Z,89.20
2017-12-24T22:14:04.645Z,89.10
2017-12-24T22:16:32.781Z,89.10
2017-12-24T22:19:00.953Z,89.50
2017-12-24T22:21:29.065Z,88.80
2017-12-24T22:23:57.212Z,88.70
2017-12-24T22:26:26.358Z,88.50
2017-12-24T22:28:54.507Z,88.40
2017-12-24T22:33:57.808Z,89.20
2017-12-24T22:36:25.927Z,89.60
2017-12-24T22:38:54.048Z,88.70
2017-12-24T22:41:22.177Z,88.40
2017-12-24T22:43:50.319Z,88.90
2017-12-24T22:46:18.453Z,89.10
2017-12-24T22:48:47.167Z,88.50
2017-12-24T22:51:15.308Z,88.20
2017-12-24T22:53:43.446Z,88.20
2017-12-24T22:56:11.581Z,88.80
2017-12-24T22:58:39.720Z,88.80
2017-12-24T23:01:08.811Z,89.10
2017-12-24T23:03:36.928Z,89.60
2017-12-24T23:06:05.215Z,89.70
2017-12-24T23:08:33.356Z,89.70
2017-12-24T23:11:02.266Z,90.00
2017-12-24T23:13:31.199Z,90.30
2017-12-24T23:16:00.504Z,90.30
2017-12-24T23:18:28.636Z,90.50
2017-12-24T23:20:56.788Z,90.60
2017-12-24T23:23:24.918Z,90.30
2017-12-24T23:25:54.356Z,90.10
2017-12-24T23:28:22.499Z,90.00
2017-12-24T23:30:51.343Z,89.60
2017-12-24T23:33:21.205Z,90.00
2017-12-24T23:35:50.689Z,90.40
2017-12-24T23:38:18.832Z,90.40
2017-12-24T23:40:46.976Z,90.60
2017-12-24T23:43:15.114Z,90.50
2017-12-24T23:45:43.262Z,90.20
2017-12-24T23:48:11.401Z,90.40
2017-12-24T23:50:40.311Z,90.40
2017-12-24T23:53:09.209Z,90.20
2017-12-24T23:55:38.113Z,90.10
2017-12-24T23:58:07.960Z,90.20
